Aviation Digital Data Service (ADDS)

Output produced by METARs form (2119 UTC 22 December 2014)
found at http://www.aviationweather.gov/adds/metars/
 
KDUJ 222053Z AUTO 11012KT 7SM CLR 00/M04 A3003 RMK AO2 SLP191 T00001039 56011
KDUJ 221953Z AUTO 12012G18KT 7SM SCT034 01/M03 A3004 RMK AO2 SLP193 T00111033
KDUJ 221853Z AUTO 12009KT 7SM OVC033 01/M04 A3005 RMK AO2 SLP197 T00061039
KDUJ 221753Z AUTO 10009KT 7SM OVC035 00/M04 A3006 RMK AO2 SLP203 T00001039 10000 21061 58026
KDUJ 221653Z AUTO 12008KT 7SM CLR 00/M04 A3009 RMK AO2 SLP214 T00001039
KDUJ 221553Z AUTO 12011KT 6SM HZ CLR M02/M04 A3012 RMK AO2 SLP225 T10171044
KDUJ 221453Z AUTO 12009KT 5SM BR CLR M03/M06 A3014
KDUJ 221353Z AUTO 11009KT 5SM BR CLR M05/M07 A3014 RMK AO2 SLP230 T10501067
KDUJ 221253Z AUTO 11007KT 5SM BR CLR M06/M07 A3014 RMK AO2 SLP232 T10561072
KDUJ 221153Z AUTO 11009KT 7SM CLR M06/M08 A3012 RMK AO2 SLP225 I6000 T10561078 11056 21067 56002
KDUJ 221053Z AUTO 11008KT 7SM CLR M06/M08 A3013 RMK AO2 SLP227 T10611078
KDUJ 220953Z AUTO 11007KT 8SM CLR M06/M07 A3012 RMK AO2 SLP224 T10611072
KDUJ 220853Z AUTO 11007KT 8SM CLR M06/M08 A3013 RMK AO2 SLP227 I3000 T10611078 58013
KDUJ 220753Z AUTO 10006KT 8SM CLR M07/M08 A3016 RMK AO2 SLP238 I1000 T10671078
KDUJ 220653Z AUTO 10006KT 9SM CLR M06/M08 A3017 RMK AO2 SLP239 T10611078
KDUJ 220553Z AUTO 10006KT 9SM CLR M07/M08 A3017 RMK AO2 SLP241 T10671078 11039 21067 58010
KDUJ 220453Z AUTO 08006KT 9SM CLR M07/M08 A3019 RMK AO2 SLP248 T10671083 410171067
KDUJ 220353Z AUTO 10006KT 8SM CLR M07/M08 A3020 RMK AO2 SLP250 T10671083
KDUJ 220253Z AUTO 10007KT 9SM CLR M06/M08 A3020 RMK AO2 SLP251 T10561078 56007
KDUJ 220153Z AUTO 11003KT 10SM CLR M06/M08 A3021 RMK AO2 SLP254 T10561078
KDUJ 220053Z AUTO 08004KT 6SM BR CLR M06/M08 A3020 RMK AO2 SLP250 T10561078
KDUJ 212353Z AUTO 09003KT 10SM CLR M04/M07 A3022 RMK AO2 SLP259 T10391072 11017 21044 53004
KDUJ 212253Z AUTO 00000KT 10SM SCT022 M03/M07 A3022 RMK AO2 SLP255 T10281072
KDUJ 212153Z AUTO 00000KT 10SM OVC019 M02/M06 A3021 RMK AO2 SLP253 T10221061
KDUJ 212053Z AUTO 00000KT 10SM OVC019 M02/M07 A3021 RMK AO2 SLP253 T10221067 56007
KDUJ 211953Z AUTO 00000KT 10SM OVC019 M02/M06 A3021 RMK AO2 SLP253 T10221061
KDUJ 211853Z AUTO 01003KT 10SM OVC017 M02/M07 A3022 RMK AO2 SLP255 T10221067
KDUJ 211753Z AUTO VRB03KT 10SM OVC016 M03/M06 A3023 RMK AO2 SLP261 T10281061 11022 21039 58010
KDUJ 211653Z AUTO 06003KT 10SM OVC015 M03/M06 A3025 RMK AO2 SLP267 T10281061
KDUJ 211553Z AUTO 03006KT 10SM OVC013 M03/M06 A3027 RMK AO2 SLP273 T10281061
KDUJ 211453Z AUTO 00000KT 9SM OVC014 M03/M06 A3026 RMK AO2 SLP272 T10331056 53007
KDUJ 211353Z AUTO 00000KT 10SM OVC018 M03/M06 A3025 RMK AO2 SLP269 T10331056
KDUJ 211253Z AUTO 31004KT 10SM OVC016 M04/M06 A3025 RMK AO2 SLP268 T10391061
KDUJ 211203Z AUTO 29003KT 10SM OVC015 M04/M06 A3024 RMK AO2 T10391056
KDUJ 211153Z AUTO 26004KT 10SM OVC014 M04/M06 A3024 RMK AO2 SLP264 T10391056 11039 21039 53009
KDUJ 211053Z AUTO 27003KT 10SM OVC013 M04/M06 A3022 RMK AO2 SLP258 T10391056
KDUJ 211042Z AUTO 27003KT 10SM OVC013 M04/M06 A3022 RMK AO2 T10391061
KDUJ 210953Z AUTO 27003KT 10SM OVC016 M04/M06 A3021 RMK AO2 SLP255 T10391056